sensor_id;sensor_type;location;lat;lon;timestamp;temperature;humidity
9450;DHT22;4763;48.370;10.874;2023-03-09T00:00:05;10.40;99.90
9450;DHT22;4763;48.370;10.874;2023-03-09T00:02:57;10.50;99.90
9450;DHT22;4763;48.370;10.874;2023-03-09T00:05:52;10.40;99.90
9450;DHT22;4763;48.370;10.874;2023-03-09T00:08:39;10.50;99.90
9450;DHT22;4763;48.370;10.874;2023-03-09T00:11:26;10.50;99.90
9450;DHT22;4763;48.370;10.874;2023-03-09T00:14:14;10.50;99.90
9450;DHT22;4763;48.370;10.874;2023-03-09T00:17:01;10.50;99.90
9450;DHT22;4763;48.370;10.874;2023-03-09T00:19:49;10.40;99.90
9450;DHT22;4763;48.370;10.874;2023-03-09T00:22:38;10.40;99.90
9450;DHT22;4763;48.370;10.874;2023-03-09T00:25:25;10.50;99.90
9450;DHT22;4763;48.370;10.874;2023-03-09T00:28:14;10.50;99.90
9450;DHT22;4763;48.370;10.874;2023-03-09T00:31:02;10.50;99.90
9450;DHT22;4763;48.370;10.874;2023-03-09T00:33:50;10.60;99.90
9450;DHT22;4763;48.370;10.874;2023-03-09T00:36:39;10.70;99.90
9450;DHT22;4763;48.370;10.874;2023-03-09T00:39:26;10.60;99.90
9450;DHT22;4763;48.370;10.874;2023-03-09T00:42:13;10.50;99.90
9450;DHT22;4763;48.370;10.874;2023-03-09T00:45:00;10.40;99.90
9450;DHT22;4763;48.370;10.874;2023-03-09T00:47:47;10.50;99.90
9450;DHT22;4763;48.370;10.874;2023-03-09T00:50:34;10.50;99.90
9450;DHT22;4763;48.370;10.874;2023-03-09T00:53:23;10.50;99.90
9450;DHT22;4763;48.370;10.874;2023-03-09T00:56:14;10.50;99.90
9450;DHT22;4763;48.370;10.874;2023-03-09T00:59:03;10.50;99.90
9450;DHT22;4763;48.370;10.874;2023-03-09T01:01:50;10.60;99.90
9450;DHT22;4763;48.370;10.874;2023-03-09T01:04:37;10.50;99.90
9450;DHT22;4763;48.370;10.874;2023-03-09T01:07:24;10.50;99.90
9450;DHT22;4763;48.370;10.874;2023-03-09T01:10:15;10.50;99.90
9450;DHT22;4763;48.370;10.874;2023-03-09T01:13:02;10.50;99.90
9450;DHT22;4763;48.370;10.874;2023-03-09T01:15:49;10.50;99.90
9450;DHT22;4763;48.370;10.874;2023-03-09T01:18:37;10.50;99.90
9450;DHT22;4763;48.370;10.874;2023-03-09T01:21:24;10.50;99.90
9450;DHT22;4763;48.370;10.874;2023-03-09T01:24:11;10.60;99.90
9450;DHT22;4763;48.370;10.874;2023-03-09T01:27:00;10.60;99.90
9450;DHT22;4763;48.370;10.874;2023-03-09T01:29:47;10.40;99.90
9450;DHT22;4763;48.370;10.874;2023-03-09T01:32:34;10.50;99.90
9450;DHT22;4763;48.370;10.874;2023-03-09T01:35:21;10.50;99.90
9450;DHT22;4763;48.370;10.874;2023-03-09T01:38:08;10.40;99.90
9450;DHT22;4763;48.370;10.874;2023-03-09T01:40:56;10.40;99.90
9450;DHT22;4763;48.370;10.874;2023-03-09T01:43:46;10.50;99.90
9450;DHT22;4763;48.370;10.874;2023-03-09T01:46:46;10.60;99.90
9450;DHT22;4763;48.370;10.874;2023-03-09T01:49:38;10.50;99.90
9450;DHT22;4763;48.370;10.874;2023-03-09T01:52:29;10.60;99.90
9450;DHT22;4763;48.370;10.874;2023-03-09T01:55:20;10.70;99.90
9450;DHT22;4763;48.370;10.874;2023-03-09T01:58:11;10.50;99.90
9450;DHT22;4763;48.370;10.874;2023-03-09T02:01:02;10.30;99.90
9450;DHT22;4763;48.370;10.874;2023-03-09T02:03:52;10.20;99.90
9450;DHT22;4763;48.370;10.874;2023-03-09T02:06:41;10.30;99.90
9450;DHT22;4763;48.370;10.874;2023-03-09T02:09:32;10.20;99.90
9450;DHT22;4763;48.370;10.874;2023-03-09T02:12:21;10.10;99.90
9450;DHT22;4763;48.370;10.874;2023-03-09T02:15:09;10.10;99.90
9450;DHT22;4763;48.370;10.874;2023-03-09T02:17:58;10.00;99.90
9450;DHT22;4763;48.370;10.874;2023-03-09T02:20:51;10.00;99.90
9450;DHT22;4763;48.370;10.874;2023-03-09T02:23:45;9.90;99.90
9450;DHT22;4763;48.370;10.874;2023-03-09T02:26:40;9.70;99.90
9450;DHT22;4763;48.370;10.874;2023-03-09T02:29:30;9.60;99.90
9450;DHT22;4763;48.370;10.874;2023-03-09T02:32:17;9.50;99.90
9450;DHT22;4763;48.370;10.874;2023-03-09T02:35:05;9.40;99.90
9450;DHT22;4763;48.370;10.874;2023-03-09T02:37:55;9.30;99.90
9450;DHT22;4763;48.370;10.874;2023-03-09T02:40:42;9.10;99.90
9450;DHT22;4763;48.370;10.874;2023-03-09T02:43:33;9.10;99.90
9450;DHT22;4763;48.370;10.874;2023-03-09T02:46:22;9.10;99.90
9450;DHT22;4763;48.370;10.874;2023-03-09T02:49:09;9.00;99.90
9450;DHT22;4763;48.370;10.874;2023-03-09T02:51:56;9.00;99.90
9450;DHT22;4763;48.370;10.874;2023-03-09T02:54:44;9.00;99.90
9450;DHT22;4763;48.370;10.874;2023-03-09T02:57:31;9.00;99.90
9450;DHT22;4763;48.370;10.874;2023-03-09T03:00:18;8.90;99.90
9450;DHT22;4763;48.370;10.874;2023-03-09T03:03:09;9.00;99.90
9450;DHT22;4763;48.370;10.874;2023-03-09T03:05:57;9.00;99.90
9450;DHT22;4763;48.370;10.874;2023-03-09T03:08:44;8.90;99.90
9450;DHT22;4763;48.370;10.874;2023-03-09T03:11:31;8.90;99.90
9450;DHT22;4763;48.370;10.874;2023-03-09T03:14:18;8.90;99.90
9450;DHT22;4763;48.370;10.874;2023-03-09T03:17:05;8.90;99.90
9450;DHT22;4763;48.370;10.874;2023-03-09T03:19:54;8.80;99.90
9450;DHT22;4763;48.370;10.874;2023-03-09T03:22:41;8.90;99.90
9450;DHT22;4763;48.370;10.874;2023-03-09T03:25:28;8.90;99.90
9450;DHT22;4763;48.370;10.874;2023-03-09T03:28:16;8.90;99.90
9450;DHT22;4763;48.370;10.874;2023-03-09T03:31:03;8.80;99.90
9450;DHT22;4763;48.370;10.874;2023-03-09T03:33:50;8.80;99.90
9450;DHT22;4763;48.370;10.874;2023-03-09T03:36:39;8.80;99.90
9450;DHT22;4763;48.370;10.874;2023-03-09T03:39:26;8.70;99.90
9450;DHT22;4763;48.370;10.874;2023-03-09T03:42:13;8.70;99.90
9450;DHT22;4763;48.370;10.874;2023-03-09T03:45:00;8.70;99.90
9450;DHT22;4763;48.370;10.874;2023-03-09T03:47:47;8.70;99.90
9450;DHT22;4763;48.370;10.874;2023-03-09T03:50:35;8.80;99.90
9450;DHT22;4763;48.370;10.874;2023-03-09T03:53:23;8.80;99.90
9450;DHT22;4763;48.370;10.874;2023-03-09T03:56:10;8.80;99.90
9450;DHT22;4763;48.370;10.874;2023-03-09T03:58:57;8.90;99.90
9450;DHT22;4763;48.370;10.874;2023-03-09T04:01:44;8.80;99.90
9450;DHT22;4763;48.370;10.874;2023-03-09T04:04:32;8.90;99.90
9450;DHT22;4763;48.370;10.874;2023-03-09T04:07:19;8.80;99.90
9450;DHT22;4763;48.370;10.874;2023-03-09T04:10:08;8.80;99.90
9450;DHT22;4763;48.370;10.874;2023-03-09T04:12:56;8.80;99.90
9450;DHT22;4763;48.370;10.874;2023-03-09T04:15:43;8.80;99.90
9450;DHT22;4763;48.370;10.874;2023-03-09T04:18:30;8.80;99.90
9450;DHT22;4763;48.370;10.874;2023-03-09T04:21:17;8.80;99.90
9450;DHT22;4763;48.370;10.874;2023-03-09T04:24:05;8.70;99.90
9450;DHT22;4763;48.370;10.874;2023-03-09T04:26:54;8.80;99.90
9450;DHT22;4763;48.370;10.874;2023-03-09T04:29:41;8.80;99.90
9450;DHT22;4763;48.370;10.874;2023-03-09T04:32:28;8.80;99.90
9450;DHT22;4763;48.370;10.874;2023-03-09T04:35:15;8.80;99.90
9450;DHT22;4763;48.370;10.874;2023-03-09T04:38:03;8.80;99.90
9450;DHT22;4763;48.370;10.874;2023-03-09T04:40:50;8.80;99.90
9450;DHT22;4763;48.370;10.874;2023-03-09T04:43:38;8.90;99.90
9450;DHT22;4763;48.370;10.874;2023-03-09T04:46:25;8.90;99.90
9450;DHT22;4763;48.370;10.874;2023-03-09T04:49:12;8.90;99.90
9450;DHT22;4763;48.370;10.874;2023-03-09T04:51:59;9.00;99.90
9450;DHT22;4763;48.370;10.874;2023-03-09T04:54:47;9.00;99.90
9450;DHT22;4763;48.370;10.874;2023-03-09T04:57:34;9.00;99.90
9450;DHT22;4763;48.370;10.874;2023-03-09T05:00:23;9.00;99.90
9450;DHT22;4763;48.370;10.874;2023-03-09T05:03:11;9.00;99.90
9450;DHT22;4763;48.370;10.874;2023-03-09T05:05:59;9.00;99.90
9450;DHT22;4763;48.370;10.874;2023-03-09T05:08:46;9.00;99.90
9450;DHT22;4763;48.370;10.874;2023-03-09T05:11:33;8.90;99.90
9450;DHT22;4763;48.370;10.874;2023-03-09T05:14:21;8.90;99.90
9450;DHT22;4763;48.370;10.874;2023-03-09T05:17:10;8.90;99.90
9450;DHT22;4763;48.370;10.874;2023-03-09T05:19:57;8.90;99.90
9450;DHT22;4763;48.370;10.874;2023-03-09T05:22:44;8.90;99.90
9450;DHT22;4763;48.370;10.874;2023-03-09T05:25:31;8.80;99.90
9450;DHT22;4763;48.370;10.874;2023-03-09T05:28:18;8.90;99.90
9450;DHT22;4763;48.370;10.874;2023-03-09T05:31:07;8.90;99.90
9450;DHT22;4763;48.370;10.874;2023-03-09T05:33:56;8.80;99.90
9450;DHT22;4763;48.370;10.874;2023-03-09T05:36:43;8.80;99.90
9450;DHT22;4763;48.370;10.874;2023-03-09T05:39:30;8.80;99.90
9450;DHT22;4763;48.370;10.874;2023-03-09T05:42:17;8.80;99.90
9450;DHT22;4763;48.370;10.874;2023-03-09T05:45:05;8.80;99.90
9450;DHT22;4763;48.370;10.874;2023-03-09T05:47:52;8.80;99.90
9450;DHT22;4763;48.370;10.874;2023-03-09T05:50:41;8.70;99.90
9450;DHT22;4763;48.370;10.874;2023-03-09T05:53:30;8.70;99.90
9450;DHT22;4763;48.370;10.874;2023-03-09T05:56:17;8.70;99.90
9450;DHT22;4763;48.370;10.874;2023-03-09T05:59:05;8.60;99.90
9450;DHT22;4763;48.370;10.874;2023-03-09T06:01:52;8.60;99.90
9450;DHT22;4763;48.370;10.874;2023-03-09T06:04:42;8.60;99.90
9450;DHT22;4763;48.370;10.874;2023-03-09T06:07:30;8.50;99.90
9450;DHT22;4763;48.370;10.874;2023-03-09T06:10:17;8.50;99.90
9450;DHT22;4763;48.370;10.874;2023-03-09T06:13:05;8.50;99.90
9450;DHT22;4763;48.370;10.874;2023-03-09T06:15:53;8.50;99.90
9450;DHT22;4763;48.370;10.874;2023-03-09T06:18:40;8.40;99.90
9450;DHT22;4763;48.370;10.874;2023-03-09T06:21:27;8.50;99.90
9450;DHT22;4763;48.370;10.874;2023-03-09T06:24:15;8.50;99.90
9450;DHT22;4763;48.370;10.874;2023-03-09T06:27:03;8.50;99.90
9450;DHT22;4763;48.370;10.874;2023-03-09T06:29:52;8.50;99.90
9450;DHT22;4763;48.370;10.874;2023-03-09T06:32:41;8.50;99.90
9450;DHT22;4763;48.370;10.874;2023-03-09T06:35:28;8.50;99.90
9450;DHT22;4763;48.370;10.874;2023-03-09T06:38:15;8.50;99.90
9450;DHT22;4763;48.370;10.874;2023-03-09T06:41:04;8.50;99.90
9450;DHT22;4763;48.370;10.874;2023-03-09T06:43:51;8.60;99.90
9450;DHT22;4763;48.370;10.874;2023-03-09T06:46:38;8.60;99.90
9450;DHT22;4763;48.370;10.874;2023-03-09T06:49:25;8.60;99.90
9450;DHT22;4763;48.370;10.874;2023-03-09T06:52:12;8.60;99.90
9450;DHT22;4763;48.370;10.874;2023-03-09T06:54:59;8.60;99.90
9450;DHT22;4763;48.370;10.874;2023-03-09T06:57:48;8.60;99.90
9450;DHT22;4763;48.370;10.874;2023-03-09T07:00:35;8.60;99.90
9450;DHT22;4763;48.370;10.874;2023-03-09T07:03:24;8.60;99.90
9450;DHT22;4763;48.370;10.874;2023-03-09T07:06:11;8.50;99.90
9450;DHT22;4763;48.370;10.874;2023-03-09T07:08:58;8.60;99.90
9450;DHT22;4763;48.370;10.874;2023-03-09T07:11:45;8.60;99.90
9450;DHT22;4763;48.370;10.874;2023-03-09T07:14:36;8.60;99.90
9450;DHT22;4763;48.370;10.874;2023-03-09T07:17:23;8.60;99.90
9450;DHT22;4763;48.370;10.874;2023-03-09T07:20:11;8.60;99.90
9450;DHT22;4763;48.370;10.874;2023-03-09T07:22:58;8.70;99.90
9450;DHT22;4763;48.370;10.874;2023-03-09T07:25:53;8.70;99.90
9450;DHT22;4763;48.370;10.874;2023-03-09T07:28:40;8.90;99.90
9450;DHT22;4763;48.370;10.874;2023-03-09T07:31:29;9.00;99.90
9450;DHT22;4763;48.370;10.874;2023-03-09T07:34:16;9.00;99.90
9450;DHT22;4763;48.370;10.874;2023-03-09T07:37:03;9.10;99.90
9450;DHT22;4763;48.370;10.874;2023-03-09T07:39:50;9.20;99.90
9450;DHT22;4763;48.370;10.874;2023-03-09T07:42:37;9.40;99.90
9450;DHT22;4763;48.370;10.874;2023-03-09T07:45:25;9.30;99.90
9450;DHT22;4763;48.370;10.874;2023-03-09T07:48:13;9.40;99.90
9450;DHT22;4763;48.370;10.874;2023-03-09T07:51:01;9.40;99.90
9450;DHT22;4763;48.370;10.874;2023-03-09T07:53:49;9.40;99.90
9450;DHT22;4763;48.370;10.874;2023-03-09T07:56:36;9.50;99.90
9450;DHT22;4763;48.370;10.874;2023-03-09T07:59:23;9.60;99.90
9450;DHT22;4763;48.370;10.874;2023-03-09T08:02:10;9.70;99.90
9450;DHT22;4763;48.370;10.874;2023-03-09T08:04:58;9.70;99.90
9450;DHT22;4763;48.370;10.874;2023-03-09T08:07:45;9.80;99.90
9450;DHT22;4763;48.370;10.874;2023-03-09T08:10:33;9.80;99.90
9450;DHT22;4763;48.370;10.874;2023-03-09T08:13:21;9.90;99.90
9450;DHT22;4763;48.370;10.874;2023-03-09T08:16:10;9.80;99.90
9450;DHT22;4763;48.370;10.874;2023-03-09T08:18:57;10.00;99.90
9450;DHT22;4763;48.370;10.874;2023-03-09T08:21:45;10.20;99.90
9450;DHT22;4763;48.370;10.874;2023-03-09T08:24:32;10.20;99.90
9450;DHT22;4763;48.370;10.874;2023-03-09T08:27:23;10.20;99.90
9450;DHT22;4763;48.370;10.874;2023-03-09T08:30:11;10.10;99.90
9450;DHT22;4763;48.370;10.874;2023-03-09T08:32:58;10.20;99.90
9450;DHT22;4763;48.370;10.874;2023-03-09T08:35:45;10.20;99.90
9450;DHT22;4763;48.370;10.874;2023-03-09T08:38:34;10.20;99.90
9450;DHT22;4763;48.370;10.874;2023-03-09T08:41:21;10.30;99.90
9450;DHT22;4763;48.370;10.874;2023-03-09T08:44:08;10.30;99.90
9450;DHT22;4763;48.370;10.874;2023-03-09T08:46:55;10.40;99.90
9450;DHT22;4763;48.370;10.874;2023-03-09T08:49:43;10.40;99.90
9450;DHT22;4763;48.370;10.874;2023-03-09T08:52:30;10.40;99.90
9450;DHT22;4763;48.370;10.874;2023-03-09T08:55:22;10.30;99.90
9450;DHT22;4763;48.370;10.874;2023-03-09T08:58:09;10.30;99.90
9450;DHT22;4763;48.370;10.874;2023-03-09T09:00:56;10.30;99.90
9450;DHT22;4763;48.370;10.874;2023-03-09T09:03:43;10.30;99.90
9450;DHT22;4763;48.370;10.874;2023-03-09T09:06:30;10.30;99.90
9450;DHT22;4763;48.370;10.874;2023-03-09T09:09:17;10.40;99.90
9450;DHT22;4763;48.370;10.874;2023-03-09T09:12:06;10.60;99.90
9450;DHT22;4763;48.370;10.874;2023-03-09T09:14:53;10.60;99.90
9450;DHT22;4763;48.370;10.874;2023-03-09T09:17:40;10.70;99.90
9450;DHT22;4763;48.370;10.874;2023-03-09T09:20:27;10.70;99.90
9450;DHT22;4763;48.370;10.874;2023-03-09T09:23:15;10.70;99.90
9450;DHT22;4763;48.370;10.874;2023-03-09T09:26:02;10.80;99.90
9450;DHT22;4763;48.370;10.874;2023-03-09T09:28:52;10.80;99.90
9450;DHT22;4763;48.370;10.874;2023-03-09T09:31:39;10.90;99.90
9450;DHT22;4763;48.370;10.874;2023-03-09T09:34:28;11.10;99.90
9450;DHT22;4763;48.370;10.874;2023-03-09T09:37:17;11.40;99.90
9450;DHT22;4763;48.370;10.874;2023-03-09T09:40:05;11.60;99.90
9450;DHT22;4763;48.370;10.874;2023-03-09T09:42:52;11.50;99.90
9450;DHT22;4763;48.370;10.874;2023-03-09T09:45:41;11.70;99.90
9450;DHT22;4763;48.370;10.874;2023-03-09T09:48:29;12.00;99.90
9450;DHT22;4763;48.370;10.874;2023-03-09T09:51:40;12.30;99.90
9450;DHT22;4763;48.370;10.874;2023-03-09T09:54:37;12.20;99.90
9450;DHT22;4763;48.370;10.874;2023-03-09T09:57:36;12.10;99.90
9450;DHT22;4763;48.370;10.874;2023-03-09T10:00:31;12.20;99.90
9450;DHT22;4763;48.370;10.874;2023-03-09T10:03:23;12.30;99.90
9450;DHT22;4763;48.370;10.874;2023-03-09T10:06:14;12.10;99.90
9450;DHT22;4763;48.370;10.874;2023-03-09T10:09:06;12.00;99.90
9450;DHT22;4763;48.370;10.874;2023-03-09T10:11:57;11.70;99.90
9450;DHT22;4763;48.370;10.874;2023-03-09T10:14:53;11.50;99.90
9450;DHT22;4763;48.370;10.874;2023-03-09T10:17:44;11.40;99.90
9450;DHT22;4763;48.370;10.874;2023-03-09T10:20:37;11.40;99.90
9450;DHT22;4763;48.370;10.874;2023-03-09T10:23:27;11.50;99.90
9450;DHT22;4763;48.370;10.874;2023-03-09T10:26:26;12.00;99.90
9450;DHT22;4763;48.370;10.874;2023-03-09T10:29:25;11.90;99.90
9450;DHT22;4763;48.370;10.874;2023-03-09T10:32:18;11.90;99.90
9450;DHT22;4763;48.370;10.874;2023-03-09T10:35:18;11.90;99.90
9450;DHT22;4763;48.370;10.874;2023-03-09T10:38:11;12.00;99.90
9450;DHT22;4763;48.370;10.874;2023-03-09T10:40:59;12.20;99.90
9450;DHT22;4763;48.370;10.874;2023-03-09T10:43:46;12.10;99.90
9450;DHT22;4763;48.370;10.874;2023-03-09T10:46:54;12.00;99.90
9450;DHT22;4763;48.370;10.874;2023-03-09T10:49:41;12.10;99.90
9450;DHT22;4763;48.370;10.874;2023-03-09T10:52:28;12.10;99.90
9450;DHT22;4763;48.370;10.874;2023-03-09T10:55:35;12.10;99.90
9450;DHT22;4763;48.370;10.874;2023-03-09T10:58:22;12.20;99.90
9450;DHT22;4763;48.370;10.874;2023-03-09T11:01:21;12.10;99.90
9450;DHT22;4763;48.370;10.874;2023-03-09T11:04:29;12.10;99.90
9450;DHT22;4763;48.370;10.874;2023-03-09T11:07:22;12.10;99.90
9450;DHT22;4763;48.370;10.874;2023-03-09T11:10:24;12.10;99.90
9450;DHT22;4763;48.370;10.874;2023-03-09T11:13:18;12.10;99.90
9450;DHT22;4763;48.370;10.874;2023-03-09T11:16:13;12.20;99.90
9450;DHT22;4763;48.370;10.874;2023-03-09T11:19:12;12.40;99.90
9450;DHT22;4763;48.370;10.874;2023-03-09T11:22:03;12.60;99.90
9450;DHT22;4763;48.370;10.874;2023-03-09T11:24:51;12.80;99.90
9450;DHT22;4763;48.370;10.874;2023-03-09T11:27:41;12.60;99.90
9450;DHT22;4763;48.370;10.874;2023-03-09T11:30:31;12.60;99.90
9450;DHT22;4763;48.370;10.874;2023-03-09T11:33:19;12.60;99.90
9450;DHT22;4763;48.370;10.874;2023-03-09T11:36:11;12.50;99.90
9450;DHT22;4763;48.370;10.874;2023-03-09T11:39:01;12.50;99.90
9450;DHT22;4763;48.370;10.874;2023-03-09T11:41:50;12.90;99.90
9450;DHT22;4763;48.370;10.874;2023-03-09T11:44:41;13.10;99.90
9450;DHT22;4763;48.370;10.874;2023-03-09T11:47:33;13.10;99.90
9450;DHT22;4763;48.370;10.874;2023-03-09T11:50:22;13.10;99.90
9450;DHT22;4763;48.370;10.874;2023-03-09T11:53:14;13.20;99.90
9450;DHT22;4763;48.370;10.874;2023-03-09T11:56:17;13.30;99.90
9450;DHT22;4763;48.370;10.874;2023-03-09T11:59:11;13.20;99.90
9450;DHT22;4763;48.370;10.874;2023-03-09T12:02:00;13.20;99.90
9450;DHT22;4763;48.370;10.874;2023-03-09T12:04:51;13.00;99.90
9450;DHT22;4763;48.370;10.874;2023-03-09T12:07:44;13.00;99.90
9450;DHT22;4763;48.370;10.874;2023-03-09T12:10:36;13.10;99.90
9450;DHT22;4763;48.370;10.874;2023-03-09T12:13:27;13.20;99.90
9450;DHT22;4763;48.370;10.874;2023-03-09T12:16:20;13.20;99.90
9450;DHT22;4763;48.370;10.874;2023-03-09T12:19:14;13.30;99.90
9450;DHT22;4763;48.370;10.874;2023-03-09T12:22:06;13.70;99.90
9450;DHT22;4763;48.370;10.874;2023-03-09T12:24:55;13.80;99.90
9450;DHT22;4763;48.370;10.874;2023-03-09T12:27:48;13.80;99.90
9450;DHT22;4763;48.370;10.874;2023-03-09T12:30:50;13.90;99.90
9450;DHT22;4763;48.370;10.874;2023-03-09T12:37:41;13.70;99.90
9450;DHT22;4763;48.370;10.874;2023-03-09T12:40:38;13.90;99.90
9450;DHT22;4763;48.370;10.874;2023-03-09T12:43:52;14.10;99.90
9450;DHT22;4763;48.370;10.874;2023-03-09T12:46:50;14.40;99.90
9450;DHT22;4763;48.370;10.874;2023-03-09T12:49:41;14.60;99.90
9450;DHT22;4763;48.370;10.874;2023-03-09T12:52:48;15.00;99.90
9450;DHT22;4763;48.370;10.874;2023-03-09T12:55:45;15.00;99.90
9450;DHT22;4763;48.370;10.874;2023-03-09T12:58:40;15.10;99.90
9450;DHT22;4763;48.370;10.874;2023-03-09T13:01:31;15.00;99.90
9450;DHT22;4763;48.370;10.874;2023-03-09T13:04:22;14.90;99.90
9450;DHT22;4763;48.370;10.874;2023-03-09T13:07:16;14.80;99.90
9450;DHT22;4763;48.370;10.874;2023-03-09T13:10:06;14.50;99.90
9450;DHT22;4763;48.370;10.874;2023-03-09T13:13:33;14.50;99.90
9450;DHT22;4763;48.370;10.874;2023-03-09T13:16:48;14.20;99.90
9450;DHT22;4763;48.370;10.874;2023-03-09T13:22:45;14.30;99.90
9450;DHT22;4763;48.370;10.874;2023-03-09T13:25:43;14.20;99.90
9450;DHT22;4763;48.370;10.874;2023-03-09T13:28:38;14.10;99.90
9450;DHT22;4763;48.370;10.874;2023-03-09T13:31:27;14.00;99.90
9450;DHT22;4763;48.370;10.874;2023-03-09T13:34:15;13.90;99.90
9450;DHT22;4763;48.370;10.874;2023-03-09T13:37:05;13.80;99.90
9450;DHT22;4763;48.370;10.874;2023-03-09T13:40:01;13.80;99.90
9450;DHT22;4763;48.370;10.874;2023-03-09T13:42:51;13.70;99.90
9450;DHT22;4763;48.370;10.874;2023-03-09T13:45:38;13.70;99.90
9450;DHT22;4763;48.370;10.874;2023-03-09T13:48:25;13.70;99.90
9450;DHT22;4763;48.370;10.874;2023-03-09T13:51:27;13.90;99.90
9450;DHT22;4763;48.370;10.874;2023-03-09T13:54:20;14.20;99.90
9450;DHT22;4763;48.370;10.874;2023-03-09T13:57:13;14.20;99.90
9450;DHT22;4763;48.370;10.874;2023-03-09T14:00:10;14.70;99.90
9450;DHT22;4763;48.370;10.874;2023-03-09T14:03:01;14.50;99.90
9450;DHT22;4763;48.370;10.874;2023-03-09T14:05:58;14.20;99.90
9450;DHT22;4763;48.370;10.874;2023-03-09T14:08:48;14.30;99.90
9450;DHT22;4763;48.370;10.874;2023-03-09T14:11:39;14.30;99.90
9450;DHT22;4763;48.370;10.874;2023-03-09T14:14:27;14.20;99.90
9450;DHT22;4763;48.370;10.874;2023-03-09T14:17:17;14.20;99.90
9450;DHT22;4763;48.370;10.874;2023-03-09T14:20:05;14.10;99.90
9450;DHT22;4763;48.370;10.874;2023-03-09T14:22:52;13.90;99.90
9450;DHT22;4763;48.370;10.874;2023-03-09T14:25:41;14.20;99.90
9450;DHT22;4763;48.370;10.874;2023-03-09T14:28:29;14.70;99.90
9450;DHT22;4763;48.370;10.874;2023-03-09T14:31:18;15.30;99.90
9450;DHT22;4763;48.370;10.874;2023-03-09T14:34:25;15.70;99.90
9450;DHT22;4763;48.370;10.874;2023-03-09T14:37:21;16.00;99.90
9450;DHT22;4763;48.370;10.874;2023-03-09T14:40:22;16.10;99.90
9450;DHT22;4763;48.370;10.874;2023-03-09T14:43:19;16.30;99.90
9450;DHT22;4763;48.370;10.874;2023-03-09T14:46:08;16.20;99.90
9450;DHT22;4763;48.370;10.874;2023-03-09T14:48:56;16.50;99.90
9450;DHT22;4763;48.370;10.874;2023-03-09T14:51:45;16.40;99.90
9450;DHT22;4763;48.370;10.874;2023-03-09T14:54:33;16.30;99.90
9450;DHT22;4763;48.370;10.874;2023-03-09T14:57:20;16.40;99.90
9450;DHT22;4763;48.370;10.874;2023-03-09T15:00:13;15.80;99.90
9450;DHT22;4763;48.370;10.874;2023-03-09T15:03:02;15.70;99.90
9450;DHT22;4763;48.370;10.874;2023-03-09T15:05:51;16.00;99.90
9450;DHT22;4763;48.370;10.874;2023-03-09T15:08:40;16.30;99.90
9450;DHT22;4763;48.370;10.874;2023-03-09T15:11:27;16.40;99.90
9450;DHT22;4763;48.370;10.874;2023-03-09T15:14:18;16.10;99.90
9450;DHT22;4763;48.370;10.874;2023-03-09T15:17:11;16.20;99.90
9450;DHT22;4763;48.370;10.874;2023-03-09T15:19:59;16.40;99.90
9450;DHT22;4763;48.370;10.874;2023-03-09T15:22:46;16.70;99.90
9450;DHT22;4763;48.370;10.874;2023-03-09T15:25:35;16.60;99.90
9450;DHT22;4763;48.370;10.874;2023-03-09T15:28:22;16.90;99.90
9450;DHT22;4763;48.370;10.874;2023-03-09T15:31:10;16.70;99.90
9450;DHT22;4763;48.370;10.874;2023-03-09T15:33:58;16.70;99.90
9450;DHT22;4763;48.370;10.874;2023-03-09T15:36:45;16.40;99.90
9450;DHT22;4763;48.370;10.874;2023-03-09T15:39:33;16.40;99.90
9450;DHT22;4763;48.370;10.874;2023-03-09T15:42:23;16.00;99.90
9450;DHT22;4763;48.370;10.874;2023-03-09T15:45:13;15.50;99.90
9450;DHT22;4763;48.370;10.874;2023-03-09T15:48:00;15.40;99.90
9450;DHT22;4763;48.370;10.874;2023-03-09T15:50:51;16.20;99.90
9450;DHT22;4763;48.370;10.874;2023-03-09T15:53:38;16.00;99.90
9450;DHT22;4763;48.370;10.874;2023-03-09T15:56:25;15.20;99.90
9450;DHT22;4763;48.370;10.874;2023-03-09T15:59:13;14.90;99.90
9450;DHT22;4763;48.370;10.874;2023-03-09T16:02:00;14.50;99.90
9450;DHT22;4763;48.370;10.874;2023-03-09T16:04:47;14.10;99.90
9450;DHT22;4763;48.370;10.874;2023-03-09T16:07:35;14.00;99.90
9450;DHT22;4763;48.370;10.874;2023-03-09T16:10:22;13.80;99.90
9450;DHT22;4763;48.370;10.874;2023-03-09T16:13:09;13.70;99.90
9450;DHT22;4763;48.370;10.874;2023-03-09T16:15:57;13.50;99.90
9450;DHT22;4763;48.370;10.874;2023-03-09T16:18:45;13.40;99.90
9450;DHT22;4763;48.370;10.874;2023-03-09T16:21:32;13.30;99.90
9450;DHT22;4763;48.370;10.874;2023-03-09T16:24:19;13.40;99.90
9450;DHT22;4763;48.370;10.874;2023-03-09T16:27:06;13.30;99.90
9450;DHT22;4763;48.370;10.874;2023-03-09T16:29:53;13.20;99.90
9450;DHT22;4763;48.370;10.874;2023-03-09T16:32:41;13.10;99.90
9450;DHT22;4763;48.370;10.874;2023-03-09T16:35:28;13.00;99.90
9450;DHT22;4763;48.370;10.874;2023-03-09T16:38:15;12.90;99.90
9450;DHT22;4763;48.370;10.874;2023-03-09T16:41:05;12.80;99.90
9450;DHT22;4763;48.370;10.874;2023-03-09T16:43:52;12.70;99.90
9450;DHT22;4763;48.370;10.874;2023-03-09T16:46:39;12.60;99.90
9450;DHT22;4763;48.370;10.874;2023-03-09T16:49:28;12.50;99.90
9450;DHT22;4763;48.370;10.874;2023-03-09T16:52:15;12.50;99.90
9450;DHT22;4763;48.370;10.874;2023-03-09T16:55:04;12.40;99.90
9450;DHT22;4763;48.370;10.874;2023-03-09T16:57:52;12.30;99.90
9450;DHT22;4763;48.370;10.874;2023-03-09T17:00:39;12.20;99.90
9450;DHT22;4763;48.370;10.874;2023-03-09T17:03:27;12.20;99.90
9450;DHT22;4763;48.370;10.874;2023-03-09T17:06:17;12.10;99.90
9450;DHT22;4763;48.370;10.874;2023-03-09T17:09:04;12.00;99.90
9450;DHT22;4763;48.370;10.874;2023-03-09T17:11:52;11.80;99.90
9450;DHT22;4763;48.370;10.874;2023-03-09T17:14:39;11.80;99.90
9450;DHT22;4763;48.370;10.874;2023-03-09T17:17:26;11.80;99.90
9450;DHT22;4763;48.370;10.874;2023-03-09T17:20:13;11.60;99.90
9450;DHT22;4763;48.370;10.874;2023-03-09T17:23:02;11.60;99.90
9450;DHT22;4763;48.370;10.874;2023-03-09T17:25:49;11.50;99.90
9450;DHT22;4763;48.370;10.874;2023-03-09T17:28:36;11.50;99.90
9450;DHT22;4763;48.370;10.874;2023-03-09T17:31:23;11.40;99.90
9450;DHT22;4763;48.370;10.874;2023-03-09T17:34:10;11.30;99.90
9450;DHT22;4763;48.370;10.874;2023-03-09T17:36:57;11.20;99.90
9450;DHT22;4763;48.370;10.874;2023-03-09T17:39:46;11.10;99.90
9450;DHT22;4763;48.370;10.874;2023-03-09T17:42:33;11.00;99.90
9450;DHT22;4763;48.370;10.874;2023-03-09T17:45:20;10.90;99.90
9450;DHT22;4763;48.370;10.874;2023-03-09T17:48:07;10.70;99.90
9450;DHT22;4763;48.370;10.874;2023-03-09T17:50:56;10.60;99.90
9450;DHT22;4763;48.370;10.874;2023-03-09T17:53:43;10.50;99.90
9450;DHT22;4763;48.370;10.874;2023-03-09T17:56:32;10.30;99.90
9450;DHT22;4763;48.370;10.874;2023-03-09T17:59:19;10.10;99.90
9450;DHT22;4763;48.370;10.874;2023-03-09T18:02:08;10.00;99.90
9450;DHT22;4763;48.370;10.874;2023-03-09T18:04:55;9.80;99.90
9450;DHT22;4763;48.370;10.874;2023-03-09T18:07:42;9.70;99.90
9450;DHT22;4763;48.370;10.874;2023-03-09T18:10:29;9.60;99.90
9450;DHT22;4763;48.370;10.874;2023-03-09T18:13:18;9.50;99.90
9450;DHT22;4763;48.370;10.874;2023-03-09T18:16:05;9.50;99.90
9450;DHT22;4763;48.370;10.874;2023-03-09T18:18:53;9.40;99.90
9450;DHT22;4763;48.370;10.874;2023-03-09T18:21:42;9.30;99.90